Weather at RAF Castle Archdale/RAF Lough Erne [CLOSED]

Public forecast

Using degrees Celsius for public forecast. Weather courtesy of forecast.io.

Closest aviation weather report (METAR) to RAF Castle Archdale/RAF Lough Erne

Closest report is Sligo Airport, 32.8 nm (60.7 km) WSW.

2024/04/16 16:00 (retrieved 17 minutes ago)

EISG 161600Z 31014KT 9999 FEW022 10/10 Q1022

Closest aviation forecast (TAF) to RAF Castle Archdale/RAF Lough Erne

Closest forecast is Ireland West Knock Airport, 51.4 nm (95.2 km) SW.

2024/04/16 12:11 (retrieved 4 hours ago)

TAF EIKN 161100Z 1612/1712 33010KT 9999 FEW015 SCT020 TEMPO 1612/1619 32015G25KT PROB30 TEMPO 1612/1617 SHRA FEW018CB BECMG 1700/1702 30008KT TEMPO 1709/1712 4000 -RA BKN012